createdAt,value
2023-01-15T00:01:41.029Z,29.40
2023-01-15T00:04:16.311Z,25.60
2023-01-15T00:06:47.349Z,22.10
2023-01-15T00:09:18.297Z,24.40
2023-01-15T00:11:49.189Z,28.40
2023-01-15T00:14:20.298Z,23.70
2023-01-15T00:16:53.448Z,28.60
2023-01-15T00:19:24.307Z,26.20
2023-01-15T00:21:55.370Z,24.20
2023-01-15T00:24:44.092Z,21.00
2023-01-15T00:27:33.364Z,24.80
2023-01-15T00:30:04.297Z,23.10
2023-01-15T00:32:35.265Z,23.70
2023-01-15T00:35:07.017Z,25.20
2023-01-15T00:37:38.052Z,20.10
2023-01-15T00:40:09.938Z,18.00
2023-01-15T00:42:43.175Z,17.10
2023-01-15T00:45:25.406Z,27.10
2023-01-15T00:47:56.440Z,22.70
2023-01-15T00:50:27.357Z,23.60
2023-01-15T00:52:58.294Z,22.40
2023-01-15T00:55:29.167Z,23.20
2023-01-15T00:57:59.979Z,24.40
2023-01-15T01:00:31.188Z,18.60
2023-01-15T01:03:02.696Z,26.60
2023-01-15T01:05:34.042Z,26.60
2023-01-15T01:08:04.743Z,20.00
2023-01-15T01:10:36.500Z,22.00
2023-01-15T01:13:07.778Z,16.30
2023-01-15T01:15:38.963Z,18.80
2023-01-15T01:18:09.656Z,21.60
2023-01-15T01:20:40.533Z,27.10
2023-01-15T01:23:11.450Z,20.40
2023-01-15T01:25:42.186Z,22.00
2023-01-15T01:28:13.270Z,21.70
2023-01-15T01:30:44.210Z,28.90
2023-01-15T01:33:15.137Z,21.70
2023-01-15T01:35:51.307Z,25.20
2023-01-15T01:38:22.451Z,20.30
2023-01-15T01:40:55.137Z,21.20
2023-01-15T01:43:27.193Z,20.90
2023-01-15T01:45:59.300Z,22.60
2023-01-15T01:48:33.883Z,17.60
2023-01-15T01:51:06.496Z,21.30
2023-01-15T01:53:37.846Z,21.70
2023-01-15T01:56:11.773Z,21.00
2023-01-15T01:58:42.996Z,17.90
2023-01-15T02:01:14.152Z,18.60
2023-01-15T02:03:46.417Z,24.70
2023-01-15T02:06:18.122Z,19.20
2023-01-15T02:08:48.757Z,21.10
2023-01-15T02:11:23.374Z,19.60
2023-01-15T02:13:59.113Z,18.10
2023-01-15T02:16:34.146Z,14.80
2023-01-15T02:19:08.689Z,18.70
2023-01-15T02:21:47.851Z,19.30
2023-01-15T02:24:23.919Z,21.20
2023-01-15T02:27:07.716Z,19.60
2023-01-15T02:29:44.014Z,17.70
2023-01-15T02:32:18.614Z,17.90
2023-01-15T02:34:51.793Z,12.30
2023-01-15T02:37:25.944Z,15.60
2023-01-15T02:39:59.029Z,12.20
2023-01-15T02:42:31.080Z,10.80
2023-01-15T02:45:03.789Z,13.60
2023-01-15T02:47:37.197Z,11.20
2023-01-15T02:50:12.598Z,15.30
2023-01-15T02:52:46.910Z,14.00
2023-01-15T02:55:21.721Z,16.20
2023-01-15T02:57:54.826Z,13.10
2023-01-15T03:00:27.282Z,17.30
2023-01-15T03:03:02.520Z,16.80
2023-01-15T03:05:37.565Z,17.60
2023-01-15T03:08:09.766Z,12.70
2023-01-15T03:10:43.779Z,17.80
2023-01-15T03:13:17.542Z,14.70
2023-01-15T03:16:11.802Z,14.70
2023-01-15T03:18:46.650Z,14.20
2023-01-15T03:21:19.267Z,15.10
2023-01-15T03:23:52.604Z,14.20
2023-01-15T03:26:23.600Z,14.50
2023-01-15T03:28:54.708Z,11.90
2023-01-15T03:31:26.825Z,10.00
2023-01-15T03:33:58.106Z,9.90
2023-01-15T03:36:29.625Z,8.80
2023-01-15T03:39:05.577Z,13.90
2023-01-15T03:41:54.394Z,10.20
2023-01-15T03:44:30.344Z,10.00
2023-01-15T03:47:05.838Z,13.90
2023-01-15T03:49:45.202Z,9.90
2023-01-15T03:52:24.167Z,8.00
2023-01-15T03:54:59.384Z,9.00
2023-01-15T03:57:35.292Z,7.30
2023-01-15T04:00:09.968Z,6.40
2023-01-15T04:02:47.320Z,8.50
2023-01-15T04:05:19.746Z,8.80
2023-01-15T04:07:52.969Z,6.50
2023-01-15T04:10:23.575Z,7.70
2023-01-15T04:12:56.271Z,7.50
2023-01-15T04:15:26.971Z,6.00
2023-01-15T04:17:58.226Z,7.70
2023-01-15T04:20:31.615Z,5.50
2023-01-15T04:23:03.255Z,5.90
2023-01-15T04:25:34.187Z,6.20
2023-01-15T04:28:05.407Z,5.60
2023-01-15T04:30:36.321Z,8.70
2023-01-15T04:33:07.223Z,5.00
2023-01-15T04:35:39.637Z,5.60
2023-01-15T04:38:10.499Z,6.40
2023-01-15T04:40:59.018Z,4.90
2023-01-15T04:43:47.721Z,7.30
2023-01-15T04:46:22.081Z,7.20
2023-01-15T04:48:52.976Z,5.90
2023-01-15T04:51:23.879Z,5.80
2023-01-15T04:53:55.066Z,6.40
2023-01-15T04:56:25.688Z,6.20
2023-01-15T04:58:56.524Z,5.90
2023-01-15T05:01:27.253Z,9.00
2023-01-15T05:03:58.700Z,5.30
2023-01-15T05:06:31.550Z,5.70
2023-01-15T05:09:02.783Z,5.20
2023-01-15T05:11:36.131Z,4.50
2023-01-15T05:16:38.576Z,5.20
2023-01-15T05:19:09.491Z,6.00
2023-01-15T05:21:42.159Z,4.90
2023-01-15T05:24:14.904Z,5.80
2023-01-15T05:26:46.037Z,5.60
2023-01-15T05:29:16.789Z,5.10
2023-01-15T05:31:47.853Z,6.80
2023-01-15T05:34:18.280Z,6.20
2023-01-15T05:36:49.313Z,6.10
2023-01-15T05:39:20.141Z,5.60
2023-01-15T05:41:51.380Z,6.40
2023-01-15T05:44:23.287Z,5.20
2023-01-15T05:46:55.929Z,5.30
2023-01-15T05:49:28.812Z,5.50
2023-01-15T05:52:00.862Z,5.20
2023-01-15T05:54:32.439Z,5.00
2023-01-15T05:57:03.628Z,5.20
2023-01-15T05:59:34.682Z,6.30
2023-01-15T06:02:05.396Z,5.60
2023-01-15T06:04:36.073Z,6.10
2023-01-15T06:07:07.101Z,5.30
2023-01-15T06:09:37.826Z,6.30
2023-01-15T06:12:08.559Z,5.80
2023-01-15T06:14:39.516Z,6.40
2023-01-15T06:17:10.273Z,5.80
2023-01-15T06:19:41.131Z,5.10
2023-01-15T06:22:12.175Z,6.50
2023-01-15T06:24:42.755Z,5.50
2023-01-15T06:27:13.809Z,6.50
2023-01-15T06:29:44.700Z,5.10
2023-01-15T06:32:15.479Z,7.00
2023-01-15T06:34:45.998Z,4.50
2023-01-15T06:37:17.031Z,4.90
2023-01-15T06:39:47.771Z,8.80
2023-01-15T06:42:36.356Z,6.30
2023-01-15T06:45:27.223Z,5.50
2023-01-15T06:47:58.843Z,5.70
2023-01-15T06:50:29.817Z,5.80
2023-01-15T06:53:00.679Z,6.40
2023-01-15T06:55:31.289Z,4.90
2023-01-15T06:58:03.945Z,4.70
2023-01-15T07:00:35.243Z,5.90
2023-01-15T07:03:06.801Z,4.80
2023-01-15T07:05:38.955Z,5.30
2023-01-15T07:08:10.490Z,5.30
2023-01-15T07:10:41.719Z,5.30
2023-01-15T07:13:13.632Z,5.40
2023-01-15T07:15:44.574Z,6.00
2023-01-15T07:18:15.461Z,5.50
2023-01-15T07:20:46.395Z,5.30
2023-01-15T07:23:17.409Z,5.90
2023-01-15T07:25:48.225Z,6.60
2023-01-15T07:28:18.929Z,6.10
2023-01-15T07:30:49.853Z,4.70
2023-01-15T07:33:20.619Z,5.10
2023-01-15T07:35:51.155Z,5.60
2023-01-15T07:38:22.142Z,5.40
2023-01-15T07:41:06.759Z,5.50
2023-01-15T07:43:55.387Z,6.10
2023-01-15T07:46:43.865Z,5.70
2023-01-15T07:49:32.794Z,6.20
2023-01-15T07:52:03.498Z,5.20
2023-01-15T07:54:34.569Z,7.70
2023-01-15T07:57:05.479Z,5.10
2023-01-15T07:59:36.423Z,4.90
2023-01-15T08:02:07.789Z,5.00
2023-01-15T08:04:38.830Z,5.10
2023-01-15T08:07:09.739Z,5.10
2023-01-15T08:09:40.878Z,5.10
2023-01-15T08:12:35.745Z,7.20
2023-01-15T08:15:17.051Z,6.70
2023-01-15T08:17:48.461Z,9.50
2023-01-15T08:20:20.482Z,7.30
2023-01-15T08:22:51.460Z,7.30
2023-01-15T08:25:24.142Z,5.40
2023-01-15T08:27:55.441Z,5.80
2023-01-15T08:30:26.806Z,7.10
2023-01-15T08:33:03.356Z,6.80
2023-01-15T08:35:34.773Z,5.20
2023-01-15T08:38:09.135Z,6.10
2023-01-15T08:40:59.003Z,6.00
2023-01-15T08:43:31.031Z,6.60
2023-01-15T08:46:02.799Z,5.30
2023-01-15T08:48:33.978Z,4.70
2023-01-15T08:51:07.001Z,5.90
2023-01-15T08:53:39.059Z,5.40
2023-01-15T08:56:13.380Z,6.40
2023-01-15T08:58:44.069Z,5.20
2023-01-15T09:01:16.876Z,5.90
2023-01-15T09:03:47.577Z,5.20
2023-01-15T09:06:18.338Z,5.70
2023-01-15T09:08:49.462Z,6.20
2023-01-15T09:11:20.746Z,9.60
2023-01-15T09:13:51.821Z,6.40
2023-01-15T09:16:22.772Z,4.90
2023-01-15T09:18:53.457Z,5.20
2023-01-15T09:21:24.142Z,5.00
2023-01-15T09:23:55.203Z,6.20
2023-01-15T09:26:33.505Z,6.10
2023-01-15T09:29:04.638Z,5.60
2023-01-15T09:31:35.636Z,6.20
2023-01-15T09:34:06.312Z,5.60
2023-01-15T09:36:39.751Z,4.90
2023-01-15T09:39:11.362Z,6.20
2023-01-15T09:42:09.171Z,5.50
2023-01-15T09:44:49.358Z,5.40
2023-01-15T09:47:24.010Z,7.20
2023-01-15T09:50:05.919Z,5.40
2023-01-15T09:52:46.350Z,4.70
2023-01-15T09:55:18.546Z,5.80
2023-01-15T09:57:51.526Z,7.30
2023-01-15T10:00:24.193Z,7.10
2023-01-15T10:02:59.310Z,6.00
2023-01-15T10:05:32.418Z,7.80
2023-01-15T10:08:05.356Z,7.70
2023-01-15T10:10:39.216Z,5.80
2023-01-15T10:13:16.373Z,6.00
2023-01-15T10:15:49.782Z,7.30
2023-01-15T10:18:22.440Z,6.40
2023-01-15T10:21:03.409Z,5.70
2023-01-15T10:23:40.324Z,8.40
2023-01-15T10:26:31.226Z,10.30
2023-01-15T10:29:03.698Z,8.40
2023-01-15T10:31:49.794Z,7.40
2023-01-15T10:34:45.873Z,6.30
2023-01-15T10:37:19.217Z,6.20
2023-01-15T10:39:54.258Z,7.70
2023-01-15T10:42:31.996Z,5.70
2023-01-15T10:45:04.899Z,7.40
2023-01-15T10:47:36.750Z,8.10
2023-01-15T10:50:16.760Z,6.00
2023-01-15T10:52:50.575Z,5.70
2023-01-15T10:55:25.579Z,4.80
2023-01-15T10:58:09.877Z,6.00
2023-01-15T11:00:42.311Z,7.00
2023-01-15T11:03:16.785Z,9.60
2023-01-15T11:05:48.129Z,5.30
2023-01-15T11:09:06.413Z,6.60
2023-01-15T11:11:19.285Z,5.70
2023-01-15T11:14:16.644Z,5.50
2023-01-15T11:17:04.876Z,5.20
2023-01-15T11:19:40.093Z,5.60
2023-01-15T11:22:12.653Z,5.20
2023-01-15T11:24:53.960Z,5.20
2023-01-15T11:27:26.188Z,5.00
2023-01-15T11:29:58.227Z,6.10
2023-01-15T11:32:31.076Z,4.80
2023-01-15T11:35:02.319Z,5.70
2023-01-15T11:37:33.131Z,5.40
2023-01-15T11:40:07.679Z,4.80
2023-01-15T11:42:57.275Z,4.70
2023-01-15T11:45:45.588Z,7.40
2023-01-15T11:48:34.851Z,7.00
2023-01-15T11:51:08.712Z,5.40
2023-01-15T11:53:42.352Z,5.80
2023-01-15T11:56:14.770Z,6.50
2023-01-15T11:58:46.869Z,4.90
2023-01-15T12:01:22.777Z,6.40
2023-01-15T12:03:54.357Z,5.00
2023-01-15T12:06:25.448Z,7.10
2023-01-15T12:08:59.145Z,5.10
2023-01-15T12:11:37.753Z,6.50
2023-01-15T12:14:20.325Z,5.70
2023-01-15T12:16:53.972Z,4.30
2023-01-15T12:19:28.773Z,5.60
2023-01-15T12:22:11.473Z,6.10
2023-01-15T12:25:01.707Z,5.70
2023-01-15T12:27:44.683Z,5.60
2023-01-15T12:30:20.356Z,6.10
2023-01-15T12:32:53.981Z,5.80
2023-01-15T12:35:30.028Z,5.50
2023-01-15T12:38:04.868Z,6.30
2023-01-15T12:40:41.882Z,5.40
2023-01-15T12:43:34.431Z,6.50
2023-01-15T12:46:06.354Z,6.30
2023-01-15T12:48:43.120Z,6.10
2023-01-15T12:51:15.796Z,6.10
2023-01-15T12:53:48.699Z,7.00
2023-01-15T12:56:23.208Z,6.80
2023-01-15T12:58:56.461Z,6.90
2023-01-15T13:01:31.338Z,7.50
2023-01-15T13:04:07.118Z,6.40
2023-01-15T13:06:40.410Z,7.50
2023-01-15T13:09:16.064Z,6.00
2023-01-15T13:11:46.716Z,7.50
2023-01-15T13:14:18.832Z,6.70
2023-01-15T13:16:54.978Z,6.40
2023-01-15T13:19:30.800Z,6.60
2023-01-15T13:22:03.273Z,7.50
2023-01-15T13:24:45.517Z,6.80
2023-01-15T13:27:23.847Z,7.90
2023-01-15T13:30:03.572Z,6.30
2023-01-15T13:32:35.944Z,7.00
2023-01-15T13:35:11.512Z,5.90
2023-01-15T13:37:45.221Z,5.70
2023-01-15T13:40:21.667Z,7.40
2023-01-15T13:42:53.132Z,7.10
2023-01-15T13:45:28.126Z,9.30
2023-01-15T13:48:00.979Z,8.50
2023-01-15T13:50:32.962Z,12.20
2023-01-15T13:53:05.368Z,7.30
2023-01-15T13:55:40.951Z,9.30
2023-01-15T13:58:22.506Z,8.60
2023-01-15T14:01:03.637Z,7.60
2023-01-15T14:03:35.606Z,7.40
2023-01-15T14:06:07.436Z,6.40
2023-01-15T14:08:42.205Z,6.40
2023-01-15T14:11:30.590Z,7.10
2023-01-15T14:14:12.623Z,7.90
2023-01-15T14:16:52.446Z,7.80
2023-01-15T14:19:31.197Z,7.40
2023-01-15T14:22:10.578Z,9.00
2023-01-15T14:24:51.728Z,9.70
2023-01-15T14:27:30.295Z,9.10
2023-01-15T14:30:20.276Z,7.70
2023-01-15T14:32:57.624Z,7.90
2023-01-15T14:35:29.544Z,7.30
2023-01-15T14:38:01.894Z,5.60
2023-01-15T14:40:34.763Z,6.20
2023-01-15T14:43:10.637Z,6.80
2023-01-15T14:45:42.580Z,8.10
2023-01-15T14:48:20.430Z,7.60
2023-01-15T14:50:53.099Z,7.60
2023-01-15T14:53:31.307Z,9.20
2023-01-15T14:56:04.265Z,9.60
2023-01-15T14:58:38.650Z,7.10
2023-01-15T15:01:16.219Z,8.00
2023-01-15T15:03:50.970Z,7.20
2023-01-15T15:06:22.379Z,7.20
2023-01-15T15:08:56.439Z,7.00
2023-01-15T15:11:51.349Z,7.60
2023-01-15T15:14:22.790Z,6.60
2023-01-15T15:16:55.407Z,8.30
2023-01-15T15:19:30.007Z,6.20
2023-01-15T15:22:04.517Z,8.20
2023-01-15T15:24:36.770Z,8.00
2023-01-15T15:27:18.119Z,7.60
2023-01-15T15:29:48.818Z,7.80
2023-01-15T15:32:21.577Z,7.50
2023-01-15T15:34:54.277Z,8.90
2023-01-15T15:37:26.463Z,7.00
2023-01-15T15:39:59.169Z,8.80
2023-01-15T15:42:49.449Z,8.20
2023-01-15T15:45:39.069Z,7.50
2023-01-15T15:48:42.086Z,7.50
2023-01-15T15:51:26.511Z,7.80
2023-01-15T15:54:13.397Z,7.00
2023-01-15T15:56:45.852Z,10.70
2023-01-15T15:59:21.803Z,8.00
2023-01-15T16:01:52.682Z,8.10
2023-01-15T16:04:24.448Z,8.90
2023-01-15T16:06:55.292Z,8.20
2023-01-15T16:09:26.257Z,11.00
2023-01-15T16:12:07.377Z,8.60
2023-01-15T16:14:38.550Z,9.50
2023-01-15T16:17:12.002Z,7.90
2023-01-15T16:19:43.536Z,8.20
2023-01-15T16:22:16.630Z,8.50
2023-01-15T16:24:55.713Z,7.90
2023-01-15T16:27:28.810Z,7.30
2023-01-15T16:29:59.807Z,8.00
2023-01-15T16:32:32.568Z,7.10
2023-01-15T16:35:06.840Z,9.00
2023-01-15T16:37:37.889Z,10.30
2023-01-15T16:40:17.743Z,9.10
2023-01-15T16:42:48.930Z,11.00
2023-01-15T16:45:24.468Z,8.10
2023-01-15T16:48:03.820Z,10.40
2023-01-15T16:50:34.797Z,8.50
2023-01-15T16:53:06.081Z,10.20
2023-01-15T16:55:38.192Z,11.00
2023-01-15T16:58:19.431Z,11.70
2023-01-15T17:00:51.456Z,14.80
2023-01-15T17:03:23.194Z,9.00
2023-01-15T17:05:55.930Z,9.10
2023-01-15T17:08:29.620Z,8.40
2023-01-15T17:11:01.402Z,9.90
2023-01-15T17:13:35.510Z,8.80
2023-01-15T17:16:17.121Z,8.00
2023-01-15T17:18:49.154Z,8.00
2023-01-15T17:21:23.472Z,6.70
2023-01-15T17:23:54.761Z,10.00
2023-01-15T17:26:26.330Z,9.80
2023-01-15T17:28:57.203Z,10.50
2023-01-15T17:31:29.710Z,9.90
2023-01-15T17:34:01.064Z,7.10
2023-01-15T17:36:33.003Z,6.70
2023-01-15T17:39:04.047Z,7.60
2023-01-15T17:41:34.903Z,6.40
2023-01-15T17:44:07.274Z,8.00
2023-01-15T17:46:37.994Z,9.70
2023-01-15T17:49:09.273Z,10.40
2023-01-15T17:51:39.985Z,8.60
2023-01-15T17:54:11.030Z,8.20
2023-01-15T17:56:59.498Z,7.60
2023-01-15T17:59:48.227Z,8.00
2023-01-15T18:02:40.948Z,9.70
2023-01-15T18:05:31.169Z,7.90
2023-01-15T18:08:04.144Z,7.10
2023-01-15T18:10:35.601Z,7.50
2023-01-15T18:13:08.422Z,8.60
2023-01-15T18:15:39.683Z,8.10
2023-01-15T18:18:11.692Z,8.40
2023-01-15T18:20:42.738Z,11.10
2023-01-15T18:23:23.382Z,8.90
2023-01-15T18:25:55.389Z,8.80
2023-01-15T18:28:26.022Z,8.60
2023-01-15T18:30:57.353Z,11.40
2023-01-15T18:33:30.588Z,9.40
2023-01-15T18:36:15.119Z,10.10
2023-01-15T18:38:47.387Z,9.00
2023-01-15T18:41:54.887Z,9.70
2023-01-15T18:44:48.345Z,9.00
2023-01-15T18:47:19.576Z,11.40
2023-01-15T18:49:53.940Z,11.40
2023-01-15T18:52:47.847Z,10.60
2023-01-15T18:55:20.257Z,12.00
2023-01-15T18:57:51.274Z,12.10
2023-01-15T19:00:23.513Z,12.20
2023-01-15T19:02:54.464Z,10.30
2023-01-15T19:05:26.643Z,11.00
2023-01-15T19:07:57.793Z,9.60
2023-01-15T19:10:30.026Z,9.50
2023-01-15T19:13:03.666Z,11.40
2023-01-15T19:18:43.375Z,9.70
2023-01-15T19:21:14.454Z,11.00
2023-01-15T19:23:45.233Z,12.00
2023-01-15T19:26:16.345Z,9.60
2023-01-15T19:28:46.971Z,11.60
2023-01-15T19:31:43.796Z,13.20
2023-01-15T19:34:33.321Z,10.60
2023-01-15T19:37:05.257Z,13.40
2023-01-15T19:39:39.570Z,10.30
2023-01-15T19:42:31.320Z,10.00
2023-01-15T19:45:22.761Z,9.10
2023-01-15T19:48:11.985Z,11.10
2023-01-15T19:50:44.251Z,15.00
2023-01-15T19:53:19.188Z,10.50
2023-01-15T19:55:50.575Z,8.80
2023-01-15T19:58:21.471Z,11.90
2023-01-15T20:00:57.563Z,8.60
2023-01-15T20:03:28.713Z,7.70
2023-01-15T20:06:00.027Z,9.20
2023-01-15T20:08:32.693Z,9.40
2023-01-15T20:11:04.244Z,8.80
2023-01-15T20:13:54.198Z,9.40
2023-01-15T20:16:25.787Z,10.90
2023-01-15T20:18:56.925Z,8.20
2023-01-15T20:21:27.974Z,9.10
2023-01-15T20:23:58.601Z,7.40
2023-01-15T20:26:29.447Z,9.40
2023-01-15T20:29:00.205Z,9.20
2023-01-15T20:31:31.487Z,8.80
2023-01-15T20:34:03.009Z,8.60
2023-01-15T20:36:35.129Z,7.10
2023-01-15T20:39:06.119Z,8.00
2023-01-15T20:41:55.687Z,9.80
2023-01-15T20:44:44.392Z,7.10
2023-01-15T20:47:29.487Z,8.20
2023-01-15T20:50:00.506Z,8.40
2023-01-15T20:52:31.619Z,8.10
2023-01-15T20:55:02.692Z,8.70
2023-01-15T20:57:36.033Z,8.40
2023-01-15T21:00:09.027Z,8.50
2023-01-15T21:02:40.370Z,10.50
2023-01-15T21:05:12.644Z,8.80
2023-01-15T21:07:44.351Z,9.80
2023-01-15T21:12:47.451Z,9.70
2023-01-15T21:15:18.433Z,7.80
2023-01-15T21:17:49.632Z,8.70
2023-01-15T21:20:20.771Z,8.50
2023-01-15T21:22:51.824Z,8.60
2023-01-15T21:25:22.646Z,7.50
2023-01-15T21:27:54.080Z,8.00
2023-01-15T21:30:26.060Z,9.70
2023-01-15T21:32:58.842Z,9.20
2023-01-15T21:35:29.826Z,7.10
2023-01-15T21:38:01.147Z,8.20
2023-01-15T21:40:31.973Z,8.10
2023-01-15T21:43:20.730Z,9.20
2023-01-15T21:45:52.167Z,6.20
2023-01-15T21:48:23.319Z,6.30
2023-01-15T21:50:54.249Z,8.10
2023-01-15T21:53:25.255Z,8.20
2023-01-15T21:55:55.872Z,7.40
2023-01-15T21:58:26.721Z,6.20
2023-01-15T22:00:58.468Z,7.30
2023-01-15T22:03:29.967Z,7.00
2023-01-15T22:06:05.239Z,7.70
2023-01-15T22:08:37.872Z,6.00
2023-01-15T22:11:10.704Z,8.80
2023-01-15T22:13:41.853Z,9.00
2023-01-15T22:16:12.638Z,6.70
2023-01-15T22:18:45.719Z,7.00
2023-01-15T22:21:16.590Z,7.70
2023-01-15T22:23:49.272Z,5.70
2023-01-15T22:26:20.593Z,6.40
2023-01-15T22:28:51.944Z,8.30
2023-01-15T22:31:22.677Z,7.00
2023-01-15T22:33:54.140Z,7.00
2023-01-15T22:36:27.053Z,6.50
2023-01-15T22:38:58.045Z,5.30
2023-01-15T22:41:46.333Z,7.10
2023-01-15T22:44:17.356Z,5.30
2023-01-15T22:46:50.471Z,6.20
2023-01-15T22:49:21.771Z,4.50
2023-01-15T23:05:39.369Z,5.40
2023-01-15T23:08:10.269Z,5.60
2023-01-15T23:10:44.801Z,6.40
2023-01-15T23:13:15.469Z,5.50
2023-01-15T23:15:46.409Z,6.30
2023-01-15T23:18:17.040Z,5.70
2023-01-15T23:20:48.073Z,5.80
2023-01-15T23:23:18.919Z,6.90
2023-01-15T23:25:50.772Z,7.70
2023-01-15T23:28:21.508Z,8.40
2023-01-15T23:30:52.690Z,6.50
2023-01-15T23:33:23.485Z,8.70
2023-01-15T23:35:54.482Z,9.50
2023-01-15T23:38:25.358Z,6.30
2023-01-15T23:40:56.607Z,6.90
2023-01-15T23:43:44.845Z,6.00
2023-01-15T23:46:35.366Z,8.70
2023-01-15T23:49:07.931Z,7.70
